Time;durP1;ratioP1;P1;durP2;ratioP2;P2;SDS_P1;SDS_P2;PMS_P1;PMS_P2;Temp;Humidity;BMP_temperature;BMP_pressure;BME280_temperature;BME280_humidity;BME280_pressure;Samples;Min_cycle;Max_cycle;Signal;HPM_P1;HPM_P2
2022/12/31 00:00:00;;;;;;;;;;;;;;;25.54;32.73;96130.56;4982582;28;1413;-77
2022/12/31 00:02:26;;;;;;;;;;;;;;;25.55;33.06;96129.50;5032571;28;1679;-76
2022/12/31 00:04:53;;;;;;;;;;;;;;;25.55;33.17;96120.63;5033935;28;1686;-77
2022/12/31 00:07:18;;;;;;;;;;;;;;;25.57;32.96;96130.13;5004537;28;1590;-76
2022/12/31 00:09:43;;;;;;;;;;;;;;;25.58;34.07;96125.59;5026898;28;1490;-74
2022/12/31 00:12:08;;;;;;;;;;;;;;;25.60;33.41;96120.84;5014550;28;1777;-74
2022/12/31 00:14:34;;;;;;;;;;;;;;;25.62;33.53;96121.47;4993507;28;1949;-76
2022/12/31 00:16:59;;;;;;;;;;;;;;;25.63;33.26;96122.28;5013718;28;1579;-78
2022/12/31 00:19:24;;;;;;;;;;;;;;;25.63;33.44;96122.28;5008630;28;1824;-77
2022/12/31 00:21:49;;;;;;;;;;;;;;;25.61;33.14;96125.16;5010349;28;1610;-76
2022/12/31 00:24:14;;;;;;;;;;;;;;;25.63;33.39;96130.34;4989162;28;1764;-78
2022/12/31 00:26:40;;;;;;;;;;;;;;;25.64;33.50;96132.81;4997060;28;1685;-77
2022/12/31 00:29:05;;;;;;;;;;;;;;;25.63;33.53;96131.16;5003477;28;1845;-80
2022/12/31 00:31:32;;;;;;;;;;;;;;;25.65;33.31;96137.16;5034686;28;1667;-80
2022/12/31 00:33:58;;;;;;;;;;;;;;;25.65;33.73;96134.47;4990592;28;1679;-80
2022/12/31 00:36:25;;;;;;;;;;;;;;;25.66;33.48;96132.59;4995155;28;1997;-81
2022/12/31 00:38:51;;;;;;;;;;;;;;;25.67;33.69;96151.22;5002974;28;1782;-77
2022/12/31 00:41:17;;;;;;;;;;;;;;;25.67;33.50;96145.84;5004215;28;1460;-76
2022/12/31 00:43:43;;;;;;;;;;;;;;;25.68;33.54;96142.13;5002529;28;1683;-76
2022/12/31 00:46:08;;;;;;;;;;;;;;;25.67;33.47;96155.75;4990312;28;1883;-77
2022/12/31 00:48:34;;;;;;;;;;;;;;;25.65;33.70;96163.22;5004329;28;1648;-78
2022/12/31 00:51:00;;;;;;;;;;;;;;;25.67;33.97;96163.81;5001293;28;1655;-80
2022/12/31 00:53:25;;;;;;;;;;;;;;;25.67;33.83;96156.59;5002237;28;1599;-78
2022/12/31 00:55:50;;;;;;;;;;;;;;;25.68;33.88;96157.41;4999503;28;1910;-77
2022/12/31 00:58:16;;;;;;;;;;;;;;;25.68;33.61;96160.09;4984713;28;1634;-77
2022/12/31 01:00:41;;;;;;;;;;;;;;;25.67;33.84;96161.97;4998208;28;1670;-80
2022/12/31 01:03:06;;;;;;;;;;;;;;;25.70;33.80;96179.50;5009612;28;1759;-79
2022/12/31 01:05:32;;;;;;;;;;;;;;;25.69;34.01;96176.00;5001931;28;1718;-78
2022/12/31 01:07:57;;;;;;;;;;;;;;;25.70;33.88;96180.38;4986786;28;1711;-77
2022/12/31 01:13:26;;;;;;;;;;;;;;;25.69;34.02;96170.63;4988645;28;1570;-78
2022/12/31 01:15:52;;;;;;;;;;;;;;;25.69;34.22;96178.69;4989690;28;1902;-78
2022/12/31 01:18:17;;;;;;;;;;;;;;;25.69;34.14;96181.38;4974260;28;1633;-77
2022/12/31 01:20:43;;;;;;;;;;;;;;;25.70;34.02;96177.69;5000287;28;1570;-76
2022/12/31 01:23:09;;;;;;;;;;;;;;;25.69;34.17;96175.19;4991445;28;1609;-76
2022/12/31 01:25:35;;;;;;;;;;;;;;;25.71;34.16;96170.44;4997316;28;1547;-79
2022/12/31 01:28:00;;;;;;;;;;;;;;;25.74;34.09;96170.84;4992922;28;1699;-79
2022/12/31 01:30:26;;;;;;;;;;;;;;;25.75;34.22;96180.53;4992853;28;1526;-79
2022/12/31 01:32:51;;;;;;;;;;;;;;;25.74;34.14;96184.28;5002035;28;1733;-75
2022/12/31 01:35:16;;;;;;;;;;;;;;;25.76;34.04;96184.91;5008853;28;1902;-77
2022/12/31 01:37:41;;;;;;;;;;;;;;;25.74;34.02;96183.47;5005125;28;1491;-80
2022/12/31 01:40:07;;;;;;;;;;;;;;;25.74;34.49;96180.75;5009968;28;1642;-79
2022/12/31 01:42:32;;;;;;;;;;;;;;;25.75;34.38;96188.59;5004701;28;1700;-77
2022/12/31 01:44:57;;;;;;;;;;;;;;;25.77;33.93;96191.91;4999759;28;1755;-77
2022/12/31 01:47:43;;;;;;;;;;;;;;;25.76;34.30;96192.97;5008885;28;1613;-75
2022/12/31 01:50:16;;;;;;;;;;;;;;;25.78;34.31;96188.19;5008446;28;1696;-76
2022/12/31 01:52:47;;;;;;;;;;;;;;;25.77;33.92;96191.91;4994603;28;1469;-76
2022/12/31 01:55:12;;;;;;;;;;;;;;;25.74;34.04;96189.66;5001709;28;1977;-76
2022/12/31 01:57:37;;;;;;;;;;;;;;;25.78;34.40;96179.28;5008507;28;1658;-79
2022/12/31 02:00:04;;;;;;;;;;;;;;;25.89;34.35;96196.69;5002847;28;1662;-76
2022/12/31 02:02:29;;;;;;;;;;;;;;;25.98;34.28;96187.34;4999753;28;1709;-79
2022/12/31 02:04:57;;;;;;;;;;;;;;;26.01;34.22;96190.47;5016022;28;1736;-76
2022/12/31 02:07:22;;;;;;;;;;;;;;;26.05;33.99;96190.03;5005706;28;1563;-75
2022/12/31 02:09:47;;;;;;;;;;;;;;;26.09;33.85;96189.38;5004454;28;1739;-76
2022/12/31 02:12:13;;;;;;;;;;;;;;;26.10;33.97;96193.75;5006098;28;1683;-76
2022/12/31 02:14:42;;;;;;;;;;;;;;;26.10;33.88;96199.13;5020850;28;1910;-75
2022/12/31 02:17:43;;;;;;;;;;;;;;;26.12;33.89;96196.22;4990437;28;1641;-76
2022/12/31 02:20:08;;;;;;;;;;;;;;;26.00;34.07;96194.16;4996084;28;1601;-75
2022/12/31 02:22:45;;;;;;;;;;;;;;;25.95;33.96;96201.22;5001030;28;1668;-76
2022/12/31 02:25:14;;;;;;;;;;;;;;;25.90;34.35;96195.63;5012325;28;1494;-76
2022/12/31 02:27:44;;;;;;;;;;;;;;;25.86;34.25;96200.63;5010731;28;1693;-76
2022/12/31 02:30:09;;;;;;;;;;;;;;;25.84;34.48;96199.16;5005327;28;1720;-75
2022/12/31 02:33:07;;;;;;;;;;;;;;;25.83;34.54;96203.72;5026112;28;1676;-76
2022/12/31 02:35:36;;;;;;;;;;;;;;;25.82;34.60;96196.69;5000559;28;1942;-75
2022/12/31 02:38:06;;;;;;;;;;;;;;;25.82;34.41;96202.06;4990374;28;1628;-75
2022/12/31 02:40:33;;;;;;;;;;;;;;;25.82;34.69;96210.13;5002962;28;1455;-74
2022/12/31 02:42:58;;;;;;;;;;;;;;;25.83;34.63;96210.97;5007171;28;1547;-74
2022/12/31 02:45:28;;;;;;;;;;;;;;;25.81;34.50;96213.81;4996388;28;1476;-74
2022/12/31 02:48:03;;;;;;;;;;;;;;;25.80;34.69;96215.69;4999124;28;1418;-74
2022/12/31 02:50:54;;;;;;;;;;;;;;;25.82;34.49;96220.06;5000098;28;1773;-74
2022/12/31 02:53:39;;;;;;;;;;;;;;;25.82;34.43;96212.00;5026625;28;1446;-75
2022/12/31 02:56:10;;;;;;;;;;;;;;;25.79;34.50;96211.38;4988987;28;1914;-74
2022/12/31 03:04:31;;;;;;;;;;;;;;;25.76;34.63;96214.47;4992283;28;1579;-75
2022/12/31 03:06:56;;;;;;;;;;;;;;;25.76;34.66;96211.78;5027784;28;1657;-75
2022/12/31 03:09:21;;;;;;;;;;;;;;;25.77;34.57;96210.75;5011873;28;1725;-75
2022/12/31 03:14:31;;;;;;;;;;;;;;;25.75;34.74;96206.59;5006382;28;1664;-75
2022/12/31 03:16:56;;;;;;;;;;;;;;;25.76;35.06;96202.91;5025127;28;1971;-76
2022/12/31 03:27:33;;;;;;;;;;;;;;;25.77;34.79;96204.53;5002472;28;1423;-75
2022/12/31 03:29:58;;;;;;;;;;;;;;;25.78;35.07;96207.00;5000657;28;1697;-75
2022/12/31 03:32:23;;;;;;;;;;;;;;;25.79;35.15;96203.31;5011480;28;1446;-75
2022/12/31 03:34:49;;;;;;;;;;;;;;;25.79;35.05;96208.66;4993601;28;1989;-75
2022/12/31 03:37:14;;;;;;;;;;;;;;;25.79;35.13;96208.66;4995597;28;1725;-76
2022/12/31 03:39:39;;;;;;;;;;;;;;;25.79;35.13;96203.31;4996546;28;1692;-76
2022/12/31 03:42:05;;;;;;;;;;;;;;;25.82;34.74;96203.91;5028007;28;1628;-75
2022/12/31 03:44:30;;;;;;;;;;;;;;;25.81;35.05;96203.06;5008692;28;1618;-76
2022/12/31 03:46:55;;;;;;;;;;;;;;;25.82;35.19;96212.00;4987997;28;1658;-74
2022/12/31 03:49:20;;;;;;;;;;;;;;;25.80;35.00;96210.31;5008036;28;1719;-73
2022/12/31 03:51:46;;;;;;;;;;;;;;;25.79;35.05;96205.97;5003053;28;1769;-73
2022/12/31 03:54:11;;;;;;;;;;;;;;;25.82;35.13;96212.00;5020744;28;1619;-74
2022/12/31 03:56:36;;;;;;;;;;;;;;;25.79;35.15;96213.22;4998343;28;1906;-73
2022/12/31 03:59:01;;;;;;;;;;;;;;;25.79;34.99;96214.06;5013494;28;1880;-74
2022/12/31 04:01:27;;;;;;;;;;;;;;;25.78;35.22;96217.75;5007595;28;1503;-74
2022/12/31 04:03:52;;;;;;;;;;;;;;;25.79;35.33;96219.44;5010096;28;1782;-74
2022/12/31 04:06:17;;;;;;;;;;;;;;;25.78;35.24;96217.75;5007381;28;1479;-73
2022/12/31 04:08:42;;;;;;;;;;;;;;;25.78;35.22;96216.94;4994287;28;1631;-74
2022/12/31 04:11:08;;;;;;;;;;;;;;;25.77;35.22;96226.03;4985704;28;1422;-74
2022/12/31 04:13:33;;;;;;;;;;;;;;;25.78;34.95;96216.94;5004802;28;1686;-73
2022/12/31 04:15:58;;;;;;;;;;;;;;;25.77;35.25;96215.28;5031612;28;1914;-74
2022/12/31 04:18:23;;;;;;;;;;;;;;;25.77;35.04;96221.50;5002957;28;1819;-75
2022/12/31 04:20:49;;;;;;;;;;;;;;;25.77;35.34;96220.66;4993344;28;1724;-75
2022/12/31 04:23:14;;;;;;;;;;;;;;;25.79;35.23;96222.13;4991410;28;1512;-73
2022/12/31 04:25:39;;;;;;;;;;;;;;;25.80;35.43;96231.81;5024566;28;1487;-73
2022/12/31 04:28:04;;;;;;;;;;;;;;;25.82;35.11;96228.94;5001170;28;1836;-77
2022/12/31 04:30:30;;;;;;;;;;;;;;;25.80;35.33;96231.81;4998015;28;1484;-79
2022/12/31 04:32:55;;;;;;;;;;;;;;;25.82;35.05;96238.88;4987185;28;1591;-78
2022/12/31 04:35:20;;;;;;;;;;;;;;;25.81;35.47;96238.03;5031971;28;1906;-79
2022/12/31 04:37:45;;;;;;;;;;;;;;;25.85;35.35;96238.47;5011273;28;1663;-79
2022/12/31 04:40:11;;;;;;;;;;;;;;;25.83;35.38;96243.22;5006992;28;1660;-78
2022/12/31 04:42:36;;;;;;;;;;;;;;;25.82;35.35;96244.25;4997424;28;1610;-75
2022/12/31 04:45:01;;;;;;;;;;;;;;;25.80;35.10;96244.44;5024483;28;1548;-74
2022/12/31 04:47:27;;;;;;;;;;;;;;;25.80;34.93;96255.19;5003602;28;1646;-75
2022/12/31 04:49:52;;;;;;;;;;;;;;;25.78;34.94;96258.06;5025326;28;1614;-74
2022/12/31 04:52:17;;;;;;;;;;;;;;;25.78;34.94;96252.69;4998476;28;1639;-74
2022/12/31 04:54:43;;;;;;;;;;;;;;;25.77;35.23;96255.63;4999155;28;1918;-73
2022/12/31 04:57:08;;;;;;;;;;;;;;;25.75;35.37;96260.38;5005583;28;1733;-74
2022/12/31 04:59:33;;;;;;;;;;;;;;;25.75;35.11;96266.56;5000311;28;1758;-74
2022/12/31 05:01:58;;;;;;;;;;;;;;;25.74;34.83;96272.97;4995938;28;1600;-74
2022/12/31 05:04:24;;;;;;;;;;;;;;;25.74;35.03;96278.34;5001694;28;2829;-73
2022/12/31 05:06:49;;;;;;;;;;;;;;;25.75;35.10;96282.69;5017392;28;1527;-73
2022/12/31 05:09:14;;;;;;;;;;;;;;;25.77;35.15;96279.81;5003380;28;1588;-73
2022/12/31 05:11:40;;;;;;;;;;;;;;;25.76;35.06;96283.53;5000778;28;1555;-74
2022/12/31 05:14:05;;;;;;;;;;;;;;;25.77;34.97;96293.25;5025971;28;1541;-75
2022/12/31 05:16:30;;;;;;;;;;;;;;;25.77;35.30;96302.13;5006457;28;1902;-76
2022/12/31 05:18:55;;;;;;;;;;;;;;;25.78;35.20;96293.03;4991322;28;1660;-74
2022/12/31 05:21:21;;;;;;;;;;;;;;;25.79;34.90;96297.38;5035416;28;1713;-74
2022/12/31 05:23:46;;;;;;;;;;;;;;;25.79;35.25;96294.69;4995175;28;1620;-74
2022/12/31 05:26:12;;;;;;;;;;;;;;;25.82;34.92;96303.38;5006424;28;1547;-74
2022/12/31 05:28:37;;;;;;;;;;;;;;;25.83;35.10;96305.88;4991572;28;1610;-74
2022/12/31 05:31:02;;;;;;;;;;;;;;;25.83;35.24;96313.13;4988650;28;1603;-74
2022/12/31 05:33:28;;;;;;;;;;;;;;;25.83;34.91;96311.25;4995130;28;1641;-73
2022/12/31 05:35:53;;;;;;;;;;;;;;;25.84;35.02;96306.72;5015931;28;1961;-73
2022/12/31 05:38:19;;;;;;;;;;;;;;;25.85;35.18;96309.19;4999809;28;1675;-75
2022/12/31 05:40:44;;;;;;;;;;;;;;;25.85;34.99;96313.75;5005003;28;1604;-74
2022/12/31 05:43:09;;;;;;;;;;;;;;;25.84;35.28;96309.41;5004866;28;1568;-74
2022/12/31 05:45:35;;;;;;;;;;;;;;;25.85;35.33;96313.75;5006113;28;1652;-73
2022/12/31 05:48:00;;;;;;;;;;;;;;;25.85;35.34;96313.75;4994966;28;1482;-74
2022/12/31 05:50:25;;;;;;;;;;;;;;;25.84;35.02;96314.78;5005317;28;1661;-74
2022/12/31 05:52:51;;;;;;;;;;;;;;;25.83;35.19;96307.75;5020362;28;1712;-74
2022/12/31 05:55:16;;;;;;;;;;;;;;;25.83;35.43;96308.56;4998080;28;1988;-74
2022/12/31 05:57:41;;;;;;;;;;;;;;;25.84;35.18;96312.09;4993607;28;1475;-74
2022/12/31 06:00:08;;;;;;;;;;;;;;;25.85;35.37;96311.06;4995528;28;1652;-75
2022/12/31 06:02:33;;;;;;;;;;;;;;;25.84;35.24;96312.09;4993357;28;1504;-74
2022/12/31 06:04:59;;;;;;;;;;;;;;;25.84;35.42;96318.28;5000577;28;1613;-74
2022/12/31 06:07:24;;;;;;;;;;;;;;;25.84;35.38;96312.91;5004560;28;1729;-74
2022/12/31 06:09:49;;;;;;;;;;;;;;;25.87;35.40;96317.03;5004509;28;1715;-74
2022/12/31 06:12:14;;;;;;;;;;;;;;;25.84;35.27;96312.09;5008841;28;1695;-74
2022/12/31 06:14:40;;;;;;;;;;;;;;;25.85;35.54;96324.50;4992028;28;1647;-74
2022/12/31 06:17:05;;;;;;;;;;;;;;;25.84;35.53;96320.16;4990440;28;1898;-73
2022/12/31 06:19:30;;;;;;;;;;;;;;;25.83;35.26;96319.34;4995720;28;1581;-74
2022/12/31 06:21:56;;;;;;;;;;;;;;;25.84;35.35;96317.47;4996414;28;1701;-75
2022/12/31 06:24:21;;;;;;;;;;;;;;;25.84;35.33;96329.03;5008700;28;1662;-74
2022/12/31 06:26:47;;;;;;;;;;;;;;;25.86;35.31;96334.22;5002026;28;1683;-74
2022/12/31 06:29:12;;;;;;;;;;;;;;;25.84;35.39;96339.78;5013045;28;859;-75
2022/12/31 06:31:37;;;;;;;;;;;;;;;25.85;35.43;96337.97;5000665;28;1485;-77
2022/12/31 06:34:03;;;;;;;;;;;;;;;25.87;35.28;96343.94;5005184;28;1641;-77
2022/12/31 06:36:28;;;;;;;;;;;;;;;25.85;35.37;96343.34;4998760;28;1883;-78
2022/12/31 06:38:54;;;;;;;;;;;;;;;25.85;35.51;96338.78;4992106;28;1642;-76
2022/12/31 06:41:19;;;;;;;;;;;;;;;25.88;35.23;96343.75;5006575;28;1635;-73
2022/12/31 06:43:44;;;;;;;;;;;;;;;25.86;34.91;96350.34;4995400;28;1562;-76
2022/12/31 06:46:11;;;;;;;;;;;;;;;25.86;35.19;96358.41;4994441;28;1720;-74
2022/12/31 06:48:37;;;;;;;;;;;;;;;25.84;34.96;96357.78;4987793;28;1486;-75
2022/12/31 06:51:07;;;;;;;;;;;;;;;25.88;35.45;96361.75;4994211;28;1859;-75
2022/12/31 06:53:32;;;;;;;;;;;;;;;25.84;30.42;96361.31;5000248;28;1625;-72
2022/12/31 06:55:57;;;;;;;;;;;;;;;22.55;26.68;96377.97;5027767;28;1975;-73
2022/12/31 06:58:23;;;;;;;;;;;;;;;20.94;27.75;96374.53;4992782;28;1638;-73
2022/12/31 07:01:12;;;;;;;;;;;;;;;19.80;28.31;96387.13;5015133;28;1775;-73
2022/12/31 07:03:52;;;;;;;;;;;;;;;18.96;29.17;96378.34;5009361;28;1597;-72
2022/12/31 07:06:29;;;;;;;;;;;;;;;18.48;29.86;96386.91;4999953;28;1697;-72
2022/12/31 07:09:13;;;;;;;;;;;;;;;18.11;30.48;96391.53;5001219;28;1489;-72
2022/12/31 07:11:53;;;;;;;;;;;;;;;18.11;30.35;96396.00;5001865;28;1764;-71
2022/12/31 07:14:48;;;;;;;;;;;;;;;17.98;30.86;96396.41;4991750;28;1743;-72
2022/12/31 07:17:24;;;;;;;;;;;;;;;17.84;31.06;96395.13;5020961;28;1562;-72
2022/12/31 07:20:10;;;;;;;;;;;;;;;17.68;31.16;96395.81;5018062;28;1579;-71
2022/12/31 07:22:35;;;;;;;;;;;;;;;17.88;31.34;96396.50;5007626;28;1685;-73
2022/12/31 07:25:01;;;;;;;;;;;;;;;17.76;31.23;96405.69;5001714;28;1680;-72
2022/12/31 07:27:29;;;;;;;;;;;;;;;17.80;31.13;96406.22;5015693;28;1888;-73
2022/12/31 07:29:57;;;;;;;;;;;;;;;17.76;31.57;96403.84;4992398;28;1300;-73
2022/12/31 07:32:42;;;;;;;;;;;;;;;17.73;31.41;96411.28;5004584;28;1646;-73
2022/12/31 07:35:26;;;;;;;;;;;;;;;18.06;31.04;96412.41;4998658;28;1960;-73
2022/12/31 07:37:55;;;;;;;;;;;;;;;17.95;31.29;96408.16;5011535;28;1684;-72
2022/12/31 07:40:31;;;;;;;;;;;;;;;17.96;31.31;96412.50;4996019;28;1598;-73
2022/12/31 07:42:59;;;;;;;;;;;;;;;17.91;31.20;96411.28;4990572;28;1365;-72
2022/12/31 07:45:34;;;;;;;;;;;;;;;17.77;31.35;96416.13;5019703;28;1629;-73
2022/12/31 07:47:59;;;;;;;;;;;;;;;17.91;31.32;96416.59;4986917;28;1200;-72
2022/12/31 07:50:24;;;;;;;;;;;;;;;17.86;31.53;96421.53;4991309;28;1501;-72
2022/12/31 07:52:50;;;;;;;;;;;;;;;17.97;30.90;96419.47;4991655;28;1769;-72
2022/12/31 07:55:15;;;;;;;;;;;;;;;17.87;31.77;96418.75;4989527;28;1964;-73
2022/12/31 07:57:57;;;;;;;;;;;;;;;17.82;32.15;96415.72;4982484;28;1721;-74
2022/12/31 08:00:23;;;;;;;;;;;;;;;18.74;30.83;96418.81;5001339;28;1660;-72
2022/12/31 08:02:51;;;;;;;;;;;;;;;19.06;30.12;96429.53;4985266;28;1730;-72
2022/12/31 08:05:52;;;;;;;;;;;;;;;19.15;29.90;96418.94;4991562;28;1560;-73
2022/12/31 08:08:23;;;;;;;;;;;;;;;19.32;29.56;96421.50;5002690;28;1263;-77
2022/12/31 08:10:51;;;;;;;;;;;;;;;19.23;29.72;96419.78;4986966;28;1682;-73
2022/12/31 08:13:17;;;;;;;;;;;;;;;19.32;30.06;96421.50;4977684;28;1552;-73
2022/12/31 08:15:42;;;;;;;;;;;;;;;19.15;29.86;96413.63;5005772;28;2045;-75
2022/12/31 08:18:08;;;;;;;;;;;;;;;19.06;31.47;96416.25;4990781;28;1567;-73
2022/12/31 08:20:44;;;;;;;;;;;;;;;19.33;30.33;96417.00;4981551;28;1511;-68
2022/12/31 08:23:35;;;;;;;;;;;;;;;19.35;30.78;96422.97;4991002;28;1465;-70
2022/12/31 08:26:15;;;;;;;;;;;;;;;19.48;29.92;96422.50;4989872;28;1445;-70
2022/12/31 08:29:07;;;;;;;;;;;;;;;19.57;30.02;96423.34;4991478;28;1433;-69
2022/12/31 08:32:07;;;;;;;;;;;;;;;19.42;29.68;96423.16;4986743;28;1588;-70
2022/12/31 08:34:51;;;;;;;;;;;;;;;19.18;30.04;96415.94;5012040;28;1653;-68
2022/12/31 08:37:29;;;;;;;;;;;;;;;19.58;30.38;96427.66;5006738;28;1669;-68
2022/12/31 08:39:54;;;;;;;;;;;;;;;19.88;29.66;96431.56;5009769;28;1794;-69
2022/12/31 08:42:32;;;;;;;;;;;;;;;20.08;29.69;96429.41;5001819;28;1588;-69
2022/12/31 08:44:57;;;;;;;;;;;;;;;20.23;29.47;96425.03;4974469;28;1552;-69
2022/12/31 08:47:22;;;;;;;;;;;;;;;20.33;29.26;96422.22;5016084;28;1300;-68
2022/12/31 08:49:47;;;;;;;;;;;;;;;20.45;29.00;96423.50;5022679;28;1665;-68
2022/12/31 08:52:22;;;;;;;;;;;;;;;20.58;29.16;96415.84;4990678;28;1616;-68
2022/12/31 08:54:47;;;;;;;;;;;;;;;20.60;28.65;96408.50;4985826;28;1583;-69
2022/12/31 08:57:25;;;;;;;;;;;;;;;20.67;29.01;96406.00;4987096;28;1915;-68
2022/12/31 08:59:59;;;;;;;;;;;;;;;20.70;28.64;96410.16;5006459;28;1310;-68
2022/12/31 09:02:27;;;;;;;;;;;;;;;20.70;28.57;96416.31;5005349;28;1660;-68
2022/12/31 09:05:15;;;;;;;;;;;;;;;20.74;28.59;96406.94;5006185;28;1625;-68
2022/12/31 09:07:48;;;;;;;;;;;;;;;20.77;28.68;96411.09;4981040;28;1595;-71
2022/12/31 09:10:16;;;;;;;;;;;;;;;20.81;28.45;96413.28;4990800;28;1469;-68
2022/12/31 09:12:59;;;;;;;;;;;;;;;20.89;28.24;96402.56;4989453;28;1784;-69
2022/12/31 09:15:43;;;;;;;;;;;;;;;20.87;28.38;96409.09;4989105;28;1956;-69
2022/12/31 09:18:10;;;;;;;;;;;;;;;20.85;28.47;96409.25;4981079;28;1592;-69
2022/12/31 09:20:36;;;;;;;;;;;;;;;20.85;28.41;96409.25;4991052;28;1038;-70
2022/12/31 09:23:02;;;;;;;;;;;;;;;20.90;28.52;96406.06;4989699;28;1588;-69
2022/12/31 09:25:27;;;;;;;;;;;;;;;20.97;28.48;96403.53;4990209;28;1733;-69
2022/12/31 09:28:11;;;;;;;;;;;;;;;20.96;28.35;96399.22;4990719;28;1499;-69
2022/12/31 09:30:44;;;;;;;;;;;;;;;21.02;28.15;96396.66;4982005;28;1685;-70
2022/12/31 09:33:45;;;;;;;;;;;;;;;20.87;28.42;96395.75;4990786;28;871;-69
2022/12/31 09:36:15;;;;;;;;;;;;;;;20.81;28.59;96385.78;4988875;28;1959;-68
2022/12/31 09:38:46;;;;;;;;;;;;;;;20.84;28.90;96380.91;4990183;28;1388;-69
2022/12/31 09:41:21;;;;;;;;;;;;;;;20.89;28.37;96383.06;4981517;28;1613;-69
2022/12/31 09:44:04;;;;;;;;;;;;;;;20.88;28.68;96376.88;4989848;28;1560;-69
2022/12/31 09:46:35;;;;;;;;;;;;;;;20.89;28.68;96369.75;4990555;28;1577;-70
2022/12/31 09:49:01;;;;;;;;;;;;;;;20.89;28.73;96369.75;4991287;28;1611;-69
2022/12/31 09:51:29;;;;;;;;;;;;;;;20.92;28.30;96371.19;5008860;28;1602;-69
2022/12/31 09:54:30;;;;;;;;;;;;;;;20.86;28.43;96357.56;4999143;28;1663;-69
2022/12/31 09:57:13;;;;;;;;;;;;;;;21.07;29.03;96342.78;4984402;28;1914;-70
2022/12/31 09:59:54;;;;;;;;;;;;;;;21.40;29.24;96345.25;4993422;28;1908;-70
2022/12/31 10:02:30;;;;;;;;;;;;;;;21.69;29.00;96342.72;5008374;28;1489;-70
2022/12/31 10:05:01;;;;;;;;;;;;;;;21.90;28.71;96338.50;4983599;28;1681;-70
2022/12/31 10:07:46;;;;;;;;;;;;;;;22.08;28.63;96330.16;4994622;28;1582;-70
2022/12/31 10:10:17;;;;;;;;;;;;;;;22.23;28.38;96337.22;4992634;28;1626;-71
2022/12/31 10:12:45;;;;;;;;;;;;;;;21.98;28.29;96341.09;4992979;28;1484;-70
2022/12/31 10:15:30;;;;;;;;;;;;;;;22.08;28.76;96322.94;4985909;28;1967;-71
2022/12/31 10:18:13;;;;;;;;;;;;;;;22.25;28.73;96326.31;4991477;28;1647;-72
2022/12/31 10:20:57;;;;;;;;;;;;;;;22.39;28.69;96322.00;4993158;28;1332;-71
2022/12/31 10:23:47;;;;;;;;;;;;;;;22.50;28.40;96321.53;5008422;28;1639;-69
2022/12/31 10:26:31;;;;;;;;;;;;;;;22.60;28.56;96314.06;4987392;28;1672;-72
2022/12/31 10:28:59;;;;;;;;;;;;;;;22.66;28.61;96318.66;4988817;28;1446;-71
2022/12/31 10:31:36;;;;;;;;;;;;;;;22.74;28.55;96314.19;4993151;28;1454;-71
2022/12/31 10:34:13;;;;;;;;;;;;;;;22.80;28.36;96302.78;4978949;28;1608;-70
2022/12/31 10:36:41;;;;;;;;;;;;;;;22.85;28.46;96311.03;4993124;28;1918;-70
2022/12/31 10:39:06;;;;;;;;;;;;;;;22.91;28.39;96299.59;4998604;28;1731;-70
2022/12/31 10:41:53;;;;;;;;;;;;;;;22.98;28.41;96305.88;4993323;28;1475;-70
2022/12/31 10:44:21;;;;;;;;;;;;;;;22.68;27.58;96289.88;4992970;28;1783;-70
2022/12/31 10:46:49;;;;;;;;;;;;;;;22.66;28.31;96293.75;4991993;28;1610;-70
2022/12/31 10:49:14;;;;;;;;;;;;;;;22.74;28.37;96288.31;4989169;28;1344;-70
2022/12/31 10:51:58;;;;;;;;;;;;;;;22.85;28.32;96289.63;5002828;28;1412;-70
2022/12/31 10:54:23;;;;;;;;;;;;;;;22.95;28.22;96289.34;5006175;28;1603;-70
2022/12/31 10:56:49;;;;;;;;;;;;;;;23.00;28.42;96286.97;5008182;28;1918;-70
2022/12/31 10:59:46;;;;;;;;;;;;;;;23.05;28.40;96290.72;4993123;28;1584;-70
2022/12/31 11:02:14;;;;;;;;;;;;;;;23.11;28.32;96289.97;4982863;28;1600;-70
2022/12/31 11:04:58;;;;;;;;;;;;;;;23.15;28.48;96294.94;4994846;28;1630;-70
2022/12/31 11:07:29;;;;;;;;;;;;;;;23.18;28.36;96290.03;4978666;28;1578;-70
2022/12/31 11:09:54;;;;;;;;;;;;;;;23.22;28.26;96290.47;4992662;28;1430;-70
2022/12/31 11:12:29;;;;;;;;;;;;;;;23.24;28.31;96291.94;5003423;28;1458;-70
2022/12/31 11:14:54;;;;;;;;;;;;;;;23.26;28.47;96289.91;5004021;28;1558;-70
2022/12/31 11:17:38;;;;;;;;;;;;;;;23.30;28.47;96293.84;4992253;28;1394;-71
2022/12/31 11:20:22;;;;;;;;;;;;;;;23.32;28.44;96285.63;4992783;28;1807;-70
2022/12/31 11:22:53;;;;;;;;;;;;;;;23.35;28.58;96285.25;4990598;28;1915;-70
2022/12/31 11:25:27;;;;;;;;;;;;;;;23.36;28.36;96276.19;4982173;28;1623;-70
2022/12/31 11:28:08;;;;;;;;;;;;;;;23.39;28.38;96274.97;4992108;28;1807;-70
2022/12/31 11:30:58;;;;;;;;;;;;;;;23.40;28.37;96277.47;4992504;28;1312;-70
2022/12/31 11:33:42;;;;;;;;;;;;;;;23.42;28.56;96272.72;4992041;28;1347;-71
2022/12/31 11:36:08;;;;;;;;;;;;;;;23.44;28.45;96267.19;4983015;28;1898;-70
2022/12/31 11:38:39;;;;;;;;;;;;;;;23.45;28.49;96268.84;4992022;28;1439;-70
2022/12/31 11:41:06;;;;;;;;;;;;;;;23.48;28.30;96265.78;5007160;28;1676;-70
2022/12/31 11:43:42;;;;;;;;;;;;;;;23.48;28.24;96263.09;4992266;28;1560;-70
2022/12/31 11:46:18;;;;;;;;;;;;;;;23.49;28.29;96257.56;4991315;28;1555;-70
2022/12/31 11:48:43;;;;;;;;;;;;;;;23.52;28.42;96264.38;4999591;28;1588;-69
2022/12/31 11:51:20;;;;;;;;;;;;;;;23.53;28.41;96258.00;5022719;28;1644;-69
2022/12/31 11:54:01;;;;;;;;;;;;;;;23.53;28.23;96250.78;4994493;28;1853;-69
2022/12/31 11:56:31;;;;;;;;;;;;;;;23.54;28.49;96249.78;5003712;28;1903;-70
2022/12/31 11:58:56;;;;;;;;;;;;;;;23.55;28.60;96255.97;5016426;28;1629;-70
2022/12/31 12:01:28;;;;;;;;;;;;;;;23.56;28.53;96250.44;5024409;28;1616;-70
2022/12/31 12:03:54;;;;;;;;;;;;;;;23.56;28.56;96255.78;4993922;28;1713;-71
2022/12/31 12:06:23;;;;;;;;;;;;;;;23.56;28.38;96250.44;5006665;28;1741;-68
2022/12/31 12:08:49;;;;;;;;;;;;;;;23.57;28.53;96259.28;5000206;28;1920;-69
2022/12/31 12:11:20;;;;;;;;;;;;;;;23.55;27.93;96253.28;4986411;28;1561;-69
2022/12/31 12:13:46;;;;;;;;;;;;;;;23.51;28.29;96260.88;4994219;28;1554;-69
2022/12/31 12:16:11;;;;;;;;;;;;;;;23.53;28.52;96268.72;5025964;28;1918;-68
2022/12/31 12:18:47;;;;;;;;;;;;;;;23.54;28.56;96268.53;4995289;28;1833;-69
2022/12/31 12:21:15;;;;;;;;;;;;;;;23.58;28.42;96264.44;4994146;28;1576;-69
2022/12/31 12:23:41;;;;;;;;;;;;;;;23.60;28.69;96261.56;5024668;28;1590;-69
2022/12/31 12:26:06;;;;;;;;;;;;;;;23.63;28.27;96263.03;4993972;28;1853;-69
2022/12/31 12:28:44;;;;;;;;;;;;;;;23.64;28.49;96262.81;5005225;28;1693;-70
2022/12/31 12:31:17;;;;;;;;;;;;;;;23.64;28.67;96264.69;5011149;28;1679;-70
2022/12/31 12:33:43;;;;;;;;;;;;;;;23.67;28.62;96273.16;4991795;28;1631;-69
2022/12/31 12:36:09;;;;;;;;;;;;;;;23.68;28.70;96269.47;5001194;28;1914;-70
2022/12/31 12:38:35;;;;;;;;;;;;;;;23.69;28.72;96273.78;4992014;28;1421;-69
2022/12/31 12:41:02;;;;;;;;;;;;;;;23.68;28.76;96269.47;5010752;28;1658;-70
2022/12/31 12:43:28;;;;;;;;;;;;;;;23.68;28.70;96269.47;4997400;28;1649;-69
2022/12/31 12:45:57;;;;;;;;;;;;;;;23.70;28.89;96272.78;5000815;28;1652;-69
2022/12/31 12:48:43;;;;;;;;;;;;;;;23.70;28.77;96274.63;5010698;28;1675;-69
2022/12/31 12:51:14;;;;;;;;;;;;;;;23.71;28.61;96269.09;5004494;28;1641;-69
2022/12/31 12:53:54;;;;;;;;;;;;;;;23.71;28.86;96273.66;4991022;28;1661;-69
2022/12/31 12:56:22;;;;;;;;;;;;;;;23.68;28.57;96271.28;4992773;28;1977;-69
2022/12/31 12:59:07;;;;;;;;;;;;;;;23.69;28.87;96270.28;5011601;28;1639;-69
2022/12/31 13:01:38;;;;;;;;;;;;;;;23.68;28.85;96271.28;5006922;28;1655;-69
2022/12/31 13:04:16;;;;;;;;;;;;;;;23.69;28.68;96270.28;5019344;28;1441;-69
2022/12/31 13:06:41;;;;;;;;;;;;;;;23.70;28.54;96274.63;5003203;28;1494;-68
2022/12/31 13:09:25;;;;;;;;;;;;;;;23.68;28.79;96277.50;5005560;28;1496;-68
2022/12/31 13:12:03;;;;;;;;;;;;;;;23.70;29.05;96277.28;5010590;28;1807;-69
2022/12/31 13:14:46;;;;;;;;;;;;;;;23.71;28.68;96279.00;4992405;28;1594;-68
2022/12/31 13:17:28;;;;;;;;;;;;;;;23.70;28.77;96290.69;5013609;28;2017;-69
2022/12/31 13:20:02;;;;;;;;;;;;;;;23.71;28.68;96295.09;4999261;28;1510;-69
2022/12/31 13:22:42;;;;;;;;;;;;;;;23.71;29.13;96297.75;4972400;28;1499;-69
2022/12/31 13:25:24;;;;;;;;;;;;;;;23.71;28.97;96295.91;5021052;28;1459;-68
2022/12/31 13:27:51;;;;;;;;;;;;;;;23.72;29.05;96299.41;4996509;28;1740;-69
2022/12/31 13:30:22;;;;;;;;;;;;;;;23.71;28.99;96295.91;5033404;28;1586;-68
2022/12/31 13:32:56;;;;;;;;;;;;;;;23.76;29.07;96303.34;4997871;28;1671;-69